ANZ125 YMML-YBBN
Flight info
| Callsign | ANZ125 |
|---|---|
| Flight time | 1h 50m |
| Altitude | 37000 |
| Route | DOSEL DCT CLIFF DCT NODDY DCT OSTAM DCT ENLIP |
| Aircraft | A320/M-SDE3FGHIRWY/LB1 |
Departure
| Time | 2026-05-05 04:48 |
|---|---|
| Airport | Melbourne Airport (YMML) |
Arrival
| Time | 2026-05-05 06:38 |
|---|---|
| Airport | Brisbane International Airport (YBBN) |
| Time | Latitude | Longitude | Altitude | Speed | Heading |
|---|---|---|---|---|---|
| 2026-05-05 04:03 | -37.66949 | 144.84745 | 418 ft | 0 kts | 37° |
| 2026-05-05 04:37 | -37.66952 | 144.84741 | 418 ft | 3 kts | 37° |
| 2026-05-05 04:37 | -37.66973 | 144.84722 | 418 ft | 4 kts | 36° |
| 2026-05-05 04:37 | -37.66996 | 144.84707 | 418 ft | 4 kts | 2° |
| 2026-05-05 04:37 | -37.67015 | 144.84711 | 418 ft | 0 kts | 334° |
| 2026-05-05 04:41 | -37.67005 | 144.84697 | 418 ft | 5 kts | 297° |
| 2026-05-05 04:42 | -37.67004 | 144.84649 | 418 ft | 6 kts | 263° |
| 2026-05-05 04:42 | -37.67011 | 144.84584 | 418 ft | 9 kts | 263° |
| 2026-05-05 04:42 | -37.67017 | 144.84497 | 418 ft | 11 kts | 263° |
| 2026-05-05 04:42 | -37.67047 | 144.84402 | 418 ft | 12 kts | 259° |
| 2026-05-05 04:43 | -37.67060 | 144.84289 | 418 ft | 13 kts | 268° |
| 2026-05-05 04:43 | -37.67003 | 144.84233 | 418 ft | 12 kts | 351° |
| 2026-05-05 04:43 | -37.66914 | 144.84215 | 418 ft | 14 kts | 351° |
| 2026-05-05 04:43 | -37.66809 | 144.84196 | 418 ft | 16 kts | 352° |
| 2026-05-05 04:44 | -37.66690 | 144.84173 | 418 ft | 18 kts | 351° |
| 2026-05-05 04:44 | -37.66587 | 144.84182 | 418 ft | 14 kts | 30° |
| 2026-05-05 04:44 | -37.66532 | 144.84286 | 418 ft | 14 kts | 80° |
| 2026-05-05 04:44 | -37.66515 | 144.84418 | 418 ft | 16 kts | 81° |
| 2026-05-05 04:45 | -37.66498 | 144.84557 | 418 ft | 14 kts | 81° |
| 2026-05-05 04:45 | -37.66484 | 144.84676 | 418 ft | 13 kts | 78° |
| 2026-05-05 04:45 | -37.66426 | 144.84767 | 418 ft | 13 kts | 26° |
| 2026-05-05 04:45 | -37.66348 | 144.84785 | 418 ft | 11 kts | 5° |
| 2026-05-05 04:46 | -37.66269 | 144.84774 | 418 ft | 12 kts | 341° |
| 2026-05-05 04:46 | -37.66224 | 144.84726 | 418 ft | 7 kts | 286° |
| 2026-05-05 04:46 | -37.66221 | 144.84698 | 418 ft | 0 kts | 274° |
| 2026-05-05 04:47 | -37.66215 | 144.84580 | 418 ft | 46 kts | 274° |
| 2026-05-05 04:47 | -37.66172 | 144.83858 | 418 ft | 117 kts | 273° |
| 2026-05-05 04:47 | -37.66099 | 144.82581 | 431 ft | 170 kts | 273° |
| 2026-05-05 04:47 | -37.65983 | 144.81042 | 931 ft | 175 kts | 274° |
| 2026-05-05 04:48 | -37.65832 | 144.79590 | 1906 ft | 157 kts | 277° |
| 2026-05-05 04:48 | -37.65661 | 144.78321 | 2732 ft | 136 kts | 280° |
| 2026-05-05 04:48 | -37.65540 | 144.77155 | 3145 ft | 141 kts | 268° |
| 2026-05-05 04:48 | -37.65581 | 144.75817 | 3309 ft | 165 kts | 268° |
| 2026-05-05 04:49 | -37.65569 | 144.74288 | 3606 ft | 183 kts | 271° |
| 2026-05-05 04:49 | -37.65483 | 144.72610 | 3940 ft | 201 kts | 273° |
| 2026-05-05 04:49 | -37.65371 | 144.70758 | 4304 ft | 221 kts | 273° |
| 2026-05-05 04:49 | -37.65257 | 144.68786 | 4798 ft | 236 kts | 275° |
| 2026-05-05 04:50 | -37.64827 | 144.66720 | 5313 ft | 253 kts | 295° |
| 2026-05-05 04:50 | -37.63639 | 144.65042 | 6010 ft | 264 kts | 324° |
| 2026-05-05 04:50 | -37.61922 | 144.64161 | 6796 ft | 271 kts | 341° |
| 2026-05-05 04:50 | -37.60073 | 144.63581 | 7519 ft | 277 kts | 343° |
| 2026-05-05 04:51 | -37.58184 | 144.62981 | 8231 ft | 282 kts | 342° |
| 2026-05-05 04:51 | -37.56263 | 144.62362 | 8938 ft | 289 kts | 348° |
| 2026-05-05 04:51 | -37.54237 | 144.62456 | 9604 ft | 299 kts | 14° |
| 2026-05-05 04:51 | -37.52400 | 144.63706 | 10265 ft | 307 kts | 41° |
| 2026-05-05 04:52 | -37.51033 | 144.65819 | 10748 ft | 318 kts | 57° |
| 2026-05-05 04:52 | -37.49820 | 144.68218 | 11172 ft | 331 kts | 58° |
| 2026-05-05 04:52 | -37.48539 | 144.70698 | 11568 ft | 344 kts | 57° |
| 2026-05-05 04:52 | -37.47075 | 144.73144 | 11929 ft | 358 kts | 49° |
| 2026-05-05 04:53 | -37.45348 | 144.75490 | 12233 ft | 372 kts | 46° |
| 2026-05-05 04:53 | -37.43495 | 144.77840 | 12607 ft | 383 kts | 45° |
| 2026-05-05 04:53 | -37.41604 | 144.80216 | 13221 ft | 385 kts | 45° |
| 2026-05-05 04:53 | -37.39724 | 144.82631 | 13817 ft | 388 kts | 46° |
| 2026-05-05 04:54 | -37.37882 | 144.85058 | 14411 ft | 389 kts | 47° |
| 2026-05-05 04:54 | -37.36022 | 144.87540 | 14950 ft | 392 kts | 47° |
| 2026-05-05 04:54 | -37.34139 | 144.90049 | 15473 ft | 396 kts | 47° |
| 2026-05-05 04:54 | -37.32233 | 144.92564 | 16000 ft | 399 kts | 46° |
| 2026-05-05 04:55 | -37.30304 | 144.95088 | 16519 ft | 402 kts | 46° |
| 2026-05-05 04:55 | -37.28361 | 144.97624 | 17027 ft | 404 kts | 46° |
| 2026-05-05 04:55 | -37.26408 | 145.00177 | 17518 ft | 407 kts | 46° |
| 2026-05-05 04:55 | -37.24415 | 145.02787 | 18025 ft | 410 kts | 46° |
| 2026-05-05 04:56 | -37.22460 | 145.05349 | 18492 ft | 413 kts | 46° |
| 2026-05-05 04:56 | -37.20468 | 145.07957 | 18944 ft | 416 kts | 46° |
| 2026-05-05 04:56 | -37.18456 | 145.10587 | 19389 ft | 419 kts | 46° |
| 2026-05-05 04:56 | -37.16430 | 145.13231 | 19839 ft | 422 kts | 46° |
| 2026-05-05 04:57 | -37.14389 | 145.15891 | 20264 ft | 425 kts | 46° |
| 2026-05-05 04:57 | -37.12331 | 145.18573 | 20688 ft | 428 kts | 46° |
| 2026-05-05 04:57 | -37.10263 | 145.21264 | 21108 ft | 430 kts | 46° |
| 2026-05-05 04:57 | -37.08174 | 145.23973 | 21505 ft | 433 kts | 45° |
| 2026-05-05 04:58 | -37.05930 | 145.26512 | 21898 ft | 436 kts | 40° |
| 2026-05-05 04:58 | -37.03599 | 145.28955 | 22288 ft | 439 kts | 39° |
| 2026-05-05 04:58 | -37.01221 | 145.31375 | 22650 ft | 442 kts | 39° |
| 2026-05-05 04:58 | -36.98829 | 145.33795 | 23014 ft | 444 kts | 39° |
| 2026-05-05 04:59 | -36.96429 | 145.36244 | 23375 ft | 446 kts | 39° |
| 2026-05-05 04:59 | -36.94030 | 145.38724 | 23717 ft | 449 kts | 39° |
| 2026-05-05 04:59 | -36.91620 | 145.41230 | 24050 ft | 451 kts | 39° |
| 2026-05-05 04:59 | -36.89197 | 145.43744 | 24386 ft | 454 kts | 39° |
| 2026-05-05 05:00 | -36.86759 | 145.46257 | 24723 ft | 456 kts | 39° |
| 2026-05-05 05:00 | -36.84305 | 145.48772 | 25038 ft | 458 kts | 38° |
| 2026-05-05 05:00 | -36.81836 | 145.51300 | 25351 ft | 460 kts | 38° |
| 2026-05-05 05:00 | -36.79360 | 145.53839 | 25672 ft | 462 kts | 38° |
| 2026-05-05 05:01 | -36.76876 | 145.56391 | 25972 ft | 464 kts | 38° |
| 2026-05-05 05:01 | -36.74381 | 145.58950 | 26273 ft | 466 kts | 38° |
| 2026-05-05 05:01 | -36.71876 | 145.61516 | 26584 ft | 467 kts | 38° |
| 2026-05-05 05:01 | -36.69359 | 145.64092 | 26866 ft | 469 kts | 38° |
| 2026-05-05 05:02 | -36.66830 | 145.66676 | 27162 ft | 471 kts | 37° |
| 2026-05-05 05:02 | -36.64296 | 145.69264 | 27441 ft | 472 kts | 37° |
| 2026-05-05 05:02 | -36.61744 | 145.71867 | 27710 ft | 474 kts | 37° |
| 2026-05-05 05:02 | -36.59188 | 145.74471 | 27979 ft | 476 kts | 37° |
| 2026-05-05 05:03 | -36.56621 | 145.77085 | 28264 ft | 478 kts | 37° |
| 2026-05-05 05:03 | -36.54080 | 145.79671 | 28531 ft | 479 kts | 36° |
| 2026-05-05 05:03 | -36.51496 | 145.82297 | 28789 ft | 481 kts | 36° |
| 2026-05-05 05:03 | -36.48903 | 145.84932 | 29050 ft | 482 kts | 36° |
| 2026-05-05 05:04 | -36.46300 | 145.87574 | 29299 ft | 484 kts | 36° |
| 2026-05-05 05:04 | -36.43690 | 145.90221 | 29540 ft | 485 kts | 36° |
| 2026-05-05 05:04 | -36.41071 | 145.92874 | 29781 ft | 487 kts | 36° |
| 2026-05-05 05:04 | -36.38446 | 145.95532 | 30016 ft | 488 kts | 35° |
| 2026-05-05 05:05 | -36.35808 | 145.98198 | 30236 ft | 490 kts | 35° |
| 2026-05-05 05:05 | -36.33163 | 146.00870 | 30449 ft | 491 kts | 35° |
| 2026-05-05 05:05 | -36.30511 | 146.03548 | 30649 ft | 492 kts | 35° |
| 2026-05-05 05:05 | -36.27852 | 146.06230 | 30882 ft | 493 kts | 34° |
| 2026-05-05 05:06 | -36.25196 | 146.08908 | 31173 ft | 492 kts | 34° |
| 2026-05-05 05:06 | -36.22540 | 146.11583 | 31468 ft | 491 kts | 34° |
| 2026-05-05 05:06 | -36.19892 | 146.14245 | 31729 ft | 490 kts | 34° |
| 2026-05-05 05:06 | -36.17246 | 146.16903 | 31994 ft | 490 kts | 34° |
| 2026-05-05 05:07 | -36.14596 | 146.19562 | 32236 ft | 490 kts | 34° |
| 2026-05-05 05:07 | -36.11950 | 146.22215 | 32500 ft | 489 kts | 34° |
| 2026-05-05 05:07 | -36.09308 | 146.24864 | 32762 ft | 489 kts | 34° |
| 2026-05-05 05:07 | -36.07558 | 146.26618 | 32930 ft | 489 kts | 34° |
| 2026-05-05 05:08 | -36.04919 | 146.29260 | 33202 ft | 487 kts | 34° |
| 2026-05-05 05:08 | -36.01394 | 146.32783 | 33510 ft | 487 kts | 34° |
| 2026-05-05 05:08 | -35.99648 | 146.34525 | 33657 ft | 487 kts | 34° |
| 2026-05-05 05:08 | -35.97015 | 146.37153 | 33939 ft | 485 kts | 34° |
| 2026-05-05 05:09 | -35.94391 | 146.39769 | 34149 ft | 485 kts | 34° |
| 2026-05-05 05:09 | -35.91764 | 146.42387 | 34375 ft | 484 kts | 34° |
| 2026-05-05 05:09 | -35.89144 | 146.44996 | 34599 ft | 484 kts | 34° |
| 2026-05-05 05:09 | -35.86530 | 146.47597 | 34837 ft | 483 kts | 34° |
| 2026-05-05 05:10 | -35.83914 | 146.50196 | 35023 ft | 482 kts | 34° |
| 2026-05-05 05:10 | -35.81303 | 146.52788 | 35227 ft | 482 kts | 34° |
| 2026-05-05 05:10 | -35.78693 | 146.55375 | 35410 ft | 481 kts | 34° |
| 2026-05-05 05:10 | -35.76089 | 146.57956 | 35595 ft | 480 kts | 34° |
| 2026-05-05 05:11 | -35.73489 | 146.60531 | 35734 ft | 480 kts | 34° |
| 2026-05-05 05:11 | -35.70882 | 146.63111 | 35896 ft | 480 kts | 33° |
| 2026-05-05 05:11 | -35.68284 | 146.65680 | 36056 ft | 479 kts | 33° |
| 2026-05-05 05:11 | -35.65683 | 146.68249 | 36194 ft | 479 kts | 33° |
| 2026-05-05 05:12 | -35.63086 | 146.70812 | 36350 ft | 478 kts | 33° |
| 2026-05-05 05:12 | -35.60492 | 146.73368 | 36492 ft | 478 kts | 33° |
| 2026-05-05 05:12 | -35.57896 | 146.75924 | 36635 ft | 478 kts | 33° |
| 2026-05-05 05:12 | -35.55304 | 146.78476 | 36777 ft | 477 kts | 33° |
| 2026-05-05 05:13 | -35.52716 | 146.81022 | 36934 ft | 477 kts | 33° |
| 2026-05-05 05:13 | -35.50124 | 146.83569 | 37057 ft | 477 kts | 33° |
| 2026-05-05 05:13 | -35.47537 | 146.86109 | 37158 ft | 477 kts | 33° |
| 2026-05-05 05:14 | -35.42351 | 146.91193 | 37162 ft | 477 kts | 33° |
| 2026-05-05 05:14 | -35.37167 | 146.96268 | 37165 ft | 477 kts | 33° |
| 2026-05-05 05:15 | -35.31973 | 147.01340 | 37165 ft | 477 kts | 33° |
| 2026-05-05 05:15 | -35.26788 | 147.06398 | 37173 ft | 476 kts | 33° |
| 2026-05-05 05:16 | -35.21604 | 147.11444 | 37194 ft | 476 kts | 32° |
| 2026-05-05 05:16 | -35.16411 | 147.16490 | 37198 ft | 477 kts | 32° |
| 2026-05-05 05:17 | -35.11218 | 147.21531 | 37207 ft | 477 kts | 32° |
| 2026-05-05 05:17 | -35.06031 | 147.26557 | 37206 ft | 476 kts | 32° |
| 2026-05-05 05:18 | -35.00844 | 147.31575 | 37197 ft | 475 kts | 32° |
| 2026-05-05 05:18 | -34.95659 | 147.36581 | 37162 ft | 475 kts | 32° |
| 2026-05-05 05:19 | -34.90472 | 147.41580 | 37125 ft | 476 kts | 32° |
| 2026-05-05 05:19 | -34.85283 | 147.46574 | 37132 ft | 475 kts | 32° |
| 2026-05-05 05:20 | -34.80128 | 147.51527 | 37148 ft | 474 kts | 32° |
| 2026-05-05 05:20 | -34.74951 | 147.56495 | 37156 ft | 474 kts | 32° |
| 2026-05-05 05:21 | -34.69766 | 147.61456 | 37137 ft | 474 kts | 32° |
| 2026-05-05 05:21 | -34.64576 | 147.66419 | 37141 ft | 475 kts | 32° |
| 2026-05-05 05:22 | -34.59389 | 147.71371 | 37187 ft | 474 kts | 32° |
| 2026-05-05 05:22 | -34.54204 | 147.76312 | 37200 ft | 474 kts | 31° |
| 2026-05-05 05:23 | -34.49015 | 147.81249 | 37199 ft | 474 kts | 31° |
| 2026-05-05 05:23 | -34.43836 | 147.86168 | 37192 ft | 473 kts | 31° |
| 2026-05-05 05:24 | -34.38655 | 147.91082 | 37185 ft | 473 kts | 31° |
| 2026-05-05 05:24 | -34.33480 | 147.95981 | 37189 ft | 472 kts | 31° |
| 2026-05-05 05:25 | -34.28304 | 148.00871 | 37156 ft | 472 kts | 31° |
| 2026-05-05 05:25 | -34.23123 | 148.05764 | 37135 ft | 473 kts | 31° |
| 2026-05-05 05:26 | -34.17939 | 148.10648 | 37138 ft | 472 kts | 31° |
| 2026-05-05 05:26 | -34.12756 | 148.15521 | 37140 ft | 472 kts | 31° |
| 2026-05-05 05:27 | -34.07567 | 148.20397 | 37154 ft | 472 kts | 31° |
| 2026-05-05 05:27 | -33.99786 | 148.27688 | 37171 ft | 472 kts | 31° |
| 2026-05-05 05:28 | -33.94596 | 148.32544 | 37190 ft | 472 kts | 31° |
| 2026-05-05 05:28 | -33.89437 | 148.37362 | 37205 ft | 472 kts | 31° |
| 2026-05-05 05:29 | -33.84247 | 148.42203 | 37205 ft | 472 kts | 31° |
| 2026-05-05 05:29 | -33.79030 | 148.47062 | 37199 ft | 471 kts | 30° |
| 2026-05-05 05:30 | -33.73876 | 148.51854 | 37164 ft | 471 kts | 30° |
| 2026-05-05 05:30 | -33.68685 | 148.56670 | 37146 ft | 471 kts | 30° |
| 2026-05-05 05:31 | -33.63503 | 148.61474 | 37166 ft | 470 kts | 30° |
| 2026-05-05 05:31 | -33.58320 | 148.66269 | 37131 ft | 471 kts | 30° |
| 2026-05-05 05:32 | -33.53132 | 148.71058 | 37123 ft | 471 kts | 30° |
| 2026-05-05 05:32 | -33.47941 | 148.75850 | 37129 ft | 471 kts | 30° |
| 2026-05-05 05:33 | -33.42747 | 148.80633 | 37131 ft | 471 kts | 30° |
| 2026-05-05 05:33 | -33.37547 | 148.85411 | 37150 ft | 471 kts | 29° |
| 2026-05-05 05:34 | -33.32351 | 148.90185 | 37186 ft | 471 kts | 29° |
| 2026-05-05 05:34 | -33.27159 | 148.94943 | 37199 ft | 470 kts | 29° |
| 2026-05-05 05:35 | -33.21965 | 148.99696 | 37199 ft | 470 kts | 29° |
| 2026-05-05 05:35 | -33.16772 | 149.04439 | 37198 ft | 470 kts | 29° |
| 2026-05-05 05:36 | -33.11578 | 149.09182 | 37197 ft | 470 kts | 29° |
| 2026-05-05 05:36 | -33.06379 | 149.13917 | 37198 ft | 470 kts | 29° |
| 2026-05-05 05:37 | -33.01182 | 149.18645 | 37196 ft | 470 kts | 28° |
| 2026-05-05 05:37 | -32.95981 | 149.23369 | 37197 ft | 470 kts | 28° |
| 2026-05-05 05:38 | -32.90779 | 149.28086 | 37197 ft | 470 kts | 28° |
| 2026-05-05 05:38 | -32.85579 | 149.32797 | 37198 ft | 470 kts | 28° |
| 2026-05-05 05:39 | -32.80368 | 149.37507 | 37200 ft | 470 kts | 28° |
| 2026-05-05 05:39 | -32.75164 | 149.42209 | 37194 ft | 470 kts | 28° |
| 2026-05-05 05:40 | -32.69957 | 149.46902 | 37195 ft | 470 kts | 28° |
| 2026-05-05 05:40 | -32.64751 | 149.51585 | 37200 ft | 469 kts | 28° |
| 2026-05-05 05:41 | -32.59545 | 149.56268 | 37191 ft | 470 kts | 28° |
| 2026-05-05 05:41 | -32.54311 | 149.60880 | 37196 ft | 467 kts | 26° |
| 2026-05-05 05:42 | -32.49011 | 149.65338 | 37197 ft | 467 kts | 25° |
| 2026-05-05 05:42 | -32.43707 | 149.69782 | 37198 ft | 467 kts | 25° |
| 2026-05-05 05:43 | -32.38412 | 149.74247 | 37197 ft | 467 kts | 25° |
| 2026-05-05 05:43 | -32.33110 | 149.78707 | 37194 ft | 467 kts | 25° |
| 2026-05-05 05:44 | -32.27811 | 149.83139 | 37195 ft | 467 kts | 25° |
| 2026-05-05 05:44 | -32.22513 | 149.87576 | 37195 ft | 467 kts | 25° |
| 2026-05-05 05:45 | -32.17244 | 149.91983 | 37205 ft | 467 kts | 25° |
| 2026-05-05 05:45 | -32.11946 | 149.96404 | 37203 ft | 467 kts | 25° |
| 2026-05-05 05:46 | -32.06643 | 150.00824 | 37202 ft | 467 kts | 25° |
| 2026-05-05 05:46 | -32.01335 | 150.05237 | 37199 ft | 467 kts | 25° |
| 2026-05-05 05:47 | -31.96031 | 150.09650 | 37198 ft | 467 kts | 25° |
| 2026-05-05 05:47 | -31.90728 | 150.14050 | 37205 ft | 466 kts | 25° |
| 2026-05-05 05:48 | -31.85418 | 150.18445 | 37196 ft | 467 kts | 25° |
| 2026-05-05 05:48 | -31.80111 | 150.22838 | 37198 ft | 466 kts | 25° |
| 2026-05-05 05:49 | -31.74802 | 150.27226 | 37192 ft | 466 kts | 25° |
| 2026-05-05 05:49 | -31.69492 | 150.31603 | 37190 ft | 467 kts | 24° |
| 2026-05-05 05:50 | -31.65078 | 150.35245 | 37191 ft | 466 kts | 24° |
| 2026-05-05 05:50 | -31.59764 | 150.39614 | 37191 ft | 466 kts | 24° |
| 2026-05-05 05:51 | -31.53554 | 150.44712 | 37189 ft | 466 kts | 24° |
| 2026-05-05 05:51 | -31.49136 | 150.48338 | 37187 ft | 466 kts | 24° |
| 2026-05-05 05:52 | -31.43824 | 150.52695 | 37186 ft | 466 kts | 24° |
| 2026-05-05 05:52 | -31.38503 | 150.57044 | 37186 ft | 466 kts | 23° |
| 2026-05-05 05:53 | -31.33183 | 150.61390 | 37185 ft | 466 kts | 23° |
| 2026-05-05 05:53 | -31.27865 | 150.65736 | 37187 ft | 466 kts | 23° |
| 2026-05-05 05:54 | -31.22549 | 150.70066 | 37188 ft | 466 kts | 22° |
| 2026-05-05 05:54 | -31.17222 | 150.74398 | 37155 ft | 467 kts | 22° |
| 2026-05-05 05:55 | -31.11891 | 150.78732 | 37114 ft | 467 kts | 22° |
| 2026-05-05 05:55 | -31.06573 | 150.83107 | 37098 ft | 473 kts | 26° |
| 2026-05-05 05:56 | -31.01547 | 150.88189 | 37101 ft | 481 kts | 30° |
| 2026-05-05 05:56 | -30.96611 | 150.93464 | 37119 ft | 481 kts | 30° |
| 2026-05-05 05:57 | -30.91635 | 150.98647 | 37138 ft | 479 kts | 29° |
| 2026-05-05 05:57 | -30.86636 | 151.03783 | 37159 ft | 480 kts | 29° |
| 2026-05-05 05:58 | -30.81654 | 151.08966 | 37187 ft | 480 kts | 29° |
| 2026-05-05 05:58 | -30.76666 | 151.14145 | 37187 ft | 480 kts | 29° |
| 2026-05-05 05:59 | -30.71668 | 151.19300 | 37184 ft | 480 kts | 29° |
| 2026-05-05 05:59 | -30.66675 | 151.24456 | 37180 ft | 480 kts | 29° |
| 2026-05-05 06:00 | -30.61681 | 151.29609 | 37179 ft | 480 kts | 28° |
| 2026-05-05 06:00 | -30.56686 | 151.34752 | 37179 ft | 480 kts | 28° |
| 2026-05-05 06:01 | -30.51688 | 151.39890 | 37165 ft | 480 kts | 28° |
| 2026-05-05 06:01 | -30.46710 | 151.44998 | 37125 ft | 481 kts | 28° |
| 2026-05-05 06:02 | -30.41695 | 151.50139 | 37085 ft | 482 kts | 28° |
| 2026-05-05 06:02 | -30.36673 | 151.55282 | 37094 ft | 482 kts | 28° |
| 2026-05-05 06:03 | -30.31651 | 151.60415 | 37099 ft | 482 kts | 28° |
| 2026-05-05 06:03 | -30.26622 | 151.65548 | 37120 ft | 482 kts | 28° |
| 2026-05-05 06:04 | -30.21588 | 151.70677 | 37104 ft | 483 kts | 28° |
| 2026-05-05 06:04 | -30.16537 | 151.75818 | 37081 ft | 484 kts | 28° |
| 2026-05-05 06:05 | -30.11485 | 151.80956 | 37114 ft | 484 kts | 28° |
| 2026-05-05 06:05 | -30.06430 | 151.86086 | 37140 ft | 484 kts | 28° |
| 2026-05-05 06:06 | -30.01370 | 151.91211 | 37158 ft | 484 kts | 28° |
| 2026-05-05 06:06 | -29.96307 | 151.96339 | 37158 ft | 484 kts | 28° |
| 2026-05-05 06:07 | -29.91241 | 152.01454 | 37155 ft | 484 kts | 28° |
| 2026-05-05 06:07 | -29.86184 | 152.06561 | 37152 ft | 484 kts | 28° |
| 2026-05-05 06:08 | -29.81114 | 152.11666 | 37152 ft | 484 kts | 28° |
| 2026-05-05 06:08 | -29.76050 | 152.16764 | 37151 ft | 483 kts | 27° |
| 2026-05-05 06:09 | -29.71019 | 152.21820 | 37149 ft | 484 kts | 28° |
| 2026-05-05 06:09 | -29.65953 | 152.26902 | 37148 ft | 483 kts | 28° |
| 2026-05-05 06:10 | -29.60880 | 152.31986 | 37147 ft | 483 kts | 28° |
| 2026-05-05 06:10 | -29.55811 | 152.37059 | 37141 ft | 483 kts | 27° |
| 2026-05-05 06:11 | -29.50736 | 152.42134 | 37026 ft | 484 kts | 28° |
| 2026-05-05 06:11 | -29.48203 | 152.44664 | 36661 ft | 482 kts | 28° |
| 2026-05-05 06:11 | -29.45670 | 152.47190 | 36416 ft | 482 kts | 28° |
| 2026-05-05 06:12 | -29.43135 | 152.49712 | 36170 ft | 482 kts | 28° |
| 2026-05-05 06:12 | -29.40599 | 152.52234 | 35925 ft | 483 kts | 28° |
| 2026-05-05 06:12 | -29.38065 | 152.54760 | 35678 ft | 483 kts | 28° |
| 2026-05-05 06:12 | -29.35523 | 152.57291 | 35432 ft | 484 kts | 28° |
| 2026-05-05 06:13 | -29.32977 | 152.59821 | 35186 ft | 484 kts | 29° |
| 2026-05-05 06:13 | -29.30433 | 152.62346 | 34940 ft | 484 kts | 29° |
| 2026-05-05 06:13 | -29.27887 | 152.64875 | 34694 ft | 485 kts | 29° |
| 2026-05-05 06:13 | -29.25340 | 152.67403 | 34449 ft | 485 kts | 29° |
| 2026-05-05 06:14 | -29.22822 | 152.69901 | 34207 ft | 485 kts | 29° |
| 2026-05-05 06:14 | -29.20255 | 152.72452 | 33948 ft | 478 kts | 29° |
| 2026-05-05 06:14 | -29.17809 | 152.74891 | 33701 ft | 468 kts | 29° |
| 2026-05-05 06:14 | -29.15316 | 152.77356 | 33460 ft | 467 kts | 30° |
| 2026-05-05 06:15 | -29.12877 | 152.79750 | 33214 ft | 469 kts | 30° |
| 2026-05-05 06:15 | -29.10408 | 152.82179 | 32801 ft | 469 kts | 30° |
| 2026-05-05 06:15 | -29.07937 | 152.84615 | 32277 ft | 468 kts | 30° |
| 2026-05-05 06:15 | -29.05473 | 152.87050 | 31688 ft | 468 kts | 30° |
| 2026-05-05 06:16 | -29.03011 | 152.89486 | 31113 ft | 468 kts | 30° |
| 2026-05-05 06:16 | -29.00554 | 152.91919 | 30541 ft | 467 kts | 31° |
| 2026-05-05 06:16 | -28.98094 | 152.94343 | 29960 ft | 466 kts | 30° |
| 2026-05-05 06:16 | -28.95638 | 152.96755 | 29363 ft | 464 kts | 31° |
| 2026-05-05 06:17 | -28.93201 | 152.99150 | 28768 ft | 461 kts | 31° |
| 2026-05-05 06:17 | -28.90783 | 153.01527 | 28205 ft | 457 kts | 31° |
| 2026-05-05 06:17 | -28.88328 | 153.03782 | 27414 ft | 449 kts | 25° |
| 2026-05-05 06:17 | -28.85580 | 153.05386 | 26144 ft | 442 kts | 10° |
| 2026-05-05 06:18 | -28.82622 | 153.06230 | 25252 ft | 436 kts | 4° |
| 2026-05-05 06:18 | -28.79678 | 153.06890 | 24791 ft | 426 kts | 3° |
| 2026-05-05 06:18 | -28.76800 | 153.07536 | 24346 ft | 418 kts | 4° |
| 2026-05-05 06:18 | -28.73969 | 153.08225 | 23763 ft | 415 kts | 5° |
| 2026-05-05 06:19 | -28.71167 | 153.08961 | 23153 ft | 412 kts | 6° |
| 2026-05-05 06:19 | -28.68388 | 153.09713 | 22560 ft | 409 kts | 6° |
| 2026-05-05 06:19 | -28.65631 | 153.10449 | 21965 ft | 405 kts | 6° |
| 2026-05-05 06:19 | -28.62891 | 153.11160 | 21364 ft | 402 kts | 6° |
| 2026-05-05 06:20 | -28.60173 | 153.11853 | 20764 ft | 399 kts | 6° |
| 2026-05-05 06:20 | -28.57482 | 153.12538 | 20179 ft | 395 kts | 7° |
| 2026-05-05 06:20 | -28.54808 | 153.13220 | 19584 ft | 392 kts | 7° |
| 2026-05-05 06:20 | -28.52162 | 153.13901 | 19006 ft | 390 kts | 7° |
| 2026-05-05 06:21 | -28.49521 | 153.14583 | 18428 ft | 386 kts | 8° |
| 2026-05-05 06:21 | -28.46913 | 153.15259 | 17848 ft | 383 kts | 8° |
| 2026-05-05 06:21 | -28.44360 | 153.15917 | 17267 ft | 380 kts | 8° |
| 2026-05-05 06:21 | -28.41789 | 153.16575 | 16665 ft | 377 kts | 8° |
| 2026-05-05 06:22 | -28.39237 | 153.17228 | 16062 ft | 375 kts | 9° |
| 2026-05-05 06:22 | -28.36702 | 153.17879 | 15454 ft | 372 kts | 9° |
| 2026-05-05 06:22 | -28.34180 | 153.18526 | 14906 ft | 372 kts | 9° |
| 2026-05-05 06:22 | -28.31658 | 153.19172 | 14640 ft | 372 kts | 9° |
| 2026-05-05 06:23 | -28.29137 | 153.19819 | 14390 ft | 371 kts | 9° |
| 2026-05-05 06:23 | -28.26624 | 153.20464 | 14144 ft | 370 kts | 10° |
| 2026-05-05 06:23 | -28.24119 | 153.21106 | 13895 ft | 369 kts | 10° |
| 2026-05-05 06:23 | -28.21616 | 153.21746 | 13645 ft | 367 kts | 10° |
| 2026-05-05 06:24 | -28.19109 | 153.22243 | 13407 ft | 365 kts | 3° |
| 2026-05-05 06:24 | -28.16585 | 153.22471 | 13165 ft | 363 kts | 1° |
| 2026-05-05 06:24 | -28.14070 | 153.22616 | 12928 ft | 362 kts | 0° |
| 2026-05-05 06:24 | -28.11568 | 153.22740 | 12571 ft | 358 kts | 0° |
| 2026-05-05 06:25 | -28.09087 | 153.22879 | 11986 ft | 356 kts | 1° |
| 2026-05-05 06:25 | -28.06618 | 153.23039 | 11398 ft | 354 kts | 2° |
| 2026-05-05 06:25 | -28.04171 | 153.23214 | 10922 ft | 350 kts | 2° |
| 2026-05-05 06:25 | -28.01784 | 153.23389 | 10732 ft | 337 kts | 2° |
| 2026-05-05 06:26 | -27.99485 | 153.23551 | 10540 ft | 323 kts | 2° |
| 2026-05-05 06:26 | -27.97265 | 153.23700 | 10062 ft | 318 kts | 2° |
| 2026-05-05 06:26 | -27.95060 | 153.23844 | 9522 ft | 318 kts | 2° |
| 2026-05-05 06:26 | -27.92856 | 153.23989 | 9080 ft | 317 kts | 3° |
| 2026-05-05 06:27 | -27.90660 | 153.24136 | 8658 ft | 315 kts | 3° |
| 2026-05-05 06:27 | -27.86296 | 153.24396 | 7825 ft | 312 kts | 358° |
| 2026-05-05 06:27 | -27.84199 | 153.23870 | 7399 ft | 309 kts | 334° |
| 2026-05-05 06:28 | -27.82408 | 153.22556 | 7003 ft | 306 kts | 322° |
| 2026-05-05 06:28 | -27.80749 | 153.21053 | 6598 ft | 305 kts | 320° |
| 2026-05-05 06:28 | -27.79119 | 153.19539 | 6312 ft | 302 kts | 320° |
| 2026-05-05 06:28 | -27.77601 | 153.17902 | 6178 ft | 302 kts | 310° |
| 2026-05-05 06:29 | -27.76278 | 153.16067 | 6006 ft | 301 kts | 307° |
| 2026-05-05 06:29 | -27.75012 | 153.14187 | 5710 ft | 300 kts | 306° |
| 2026-05-05 06:29 | -27.73764 | 153.12313 | 5373 ft | 298 kts | 307° |
| 2026-05-05 06:29 | -27.72508 | 153.10459 | 5031 ft | 296 kts | 307° |
| 2026-05-05 06:30 | -27.71248 | 153.08634 | 4746 ft | 291 kts | 308° |
| 2026-05-05 06:30 | -27.70073 | 153.06948 | 4541 ft | 278 kts | 308° |
| 2026-05-05 06:30 | -27.68898 | 153.05259 | 4217 ft | 269 kts | 307° |
| 2026-05-05 06:30 | -27.67769 | 153.03631 | 4018 ft | 257 kts | 307° |
| 2026-05-05 06:31 | -27.66724 | 153.02042 | 3722 ft | 249 kts | 302° |
| 2026-05-05 06:31 | -27.65772 | 153.00443 | 3434 ft | 242 kts | 310° |
| 2026-05-05 06:31 | -27.64450 | 152.99382 | 3253 ft | 230 kts | 343° |
| 2026-05-05 06:31 | -27.62916 | 152.99224 | 3131 ft | 216 kts | 7° |
| 2026-05-05 06:32 | -27.61546 | 152.99647 | 3081 ft | 197 kts | 23° |
| 2026-05-05 06:32 | -27.60364 | 153.00283 | 3012 ft | 180 kts | 27° |
| 2026-05-05 06:32 | -27.59286 | 153.00910 | 2997 ft | 171 kts | 28° |
| 2026-05-05 06:32 | -27.58236 | 153.01526 | 2996 ft | 170 kts | 28° |
| 2026-05-05 06:33 | -27.57182 | 153.02130 | 2996 ft | 170 kts | 27° |
| 2026-05-05 06:33 | -27.56141 | 153.02722 | 2996 ft | 163 kts | 27° |
| 2026-05-05 06:33 | -27.55154 | 153.03288 | 2991 ft | 157 kts | 28° |
| 2026-05-05 06:33 | -27.54182 | 153.03850 | 2955 ft | 157 kts | 28° |
| 2026-05-05 06:34 | -27.53213 | 153.04406 | 2831 ft | 156 kts | 27° |
| 2026-05-05 06:34 | -27.52273 | 153.04943 | 2637 ft | 149 kts | 27° |
| 2026-05-05 06:34 | -27.51351 | 153.05473 | 2443 ft | 148 kts | 28° |
| 2026-05-05 06:34 | -27.50433 | 153.06001 | 2245 ft | 147 kts | 27° |
| 2026-05-05 06:35 | -27.49523 | 153.06523 | 2053 ft | 147 kts | 27° |
| 2026-05-05 06:35 | -27.48618 | 153.07041 | 1857 ft | 145 kts | 28° |
| 2026-05-05 06:35 | -27.48011 | 153.07390 | 1727 ft | 144 kts | 28° |
| 2026-05-05 06:35 | -27.47128 | 153.07896 | 1538 ft | 144 kts | 28° |
| 2026-05-05 06:36 | -27.46249 | 153.08399 | 1347 ft | 139 kts | 28° |
| 2026-05-05 06:36 | -27.45389 | 153.08894 | 1165 ft | 138 kts | 28° |
| 2026-05-05 06:36 | -27.44519 | 153.09391 | 979 ft | 138 kts | 28° |
| 2026-05-05 06:36 | -27.43666 | 153.09881 | 797 ft | 138 kts | 28° |
| 2026-05-05 06:37 | -27.42813 | 153.10369 | 613 ft | 137 kts | 28° |
| 2026-05-05 06:37 | -27.41966 | 153.10855 | 435 ft | 137 kts | 28° |
| 2026-05-05 06:37 | -27.41117 | 153.11341 | 251 ft | 136 kts | 28° |
| 2026-05-05 06:37 | -27.40284 | 153.11818 | 72 ft | 134 kts | 28° |
| 2026-05-05 06:38 | -27.39578 | 153.12223 | 27 ft | 79 kts | 27° |
| 2026-05-05 06:38 | -27.39243 | 153.12417 | 27 ft | 39 kts | 27° |
| 2026-05-05 06:38 | -27.39000 | 153.12550 | 27 ft | 39 kts | 25° |
| 2026-05-05 06:38 | -27.38772 | 153.12646 | 27 ft | 32 kts | 9° |
| 2026-05-05 06:39 | -27.38630 | 153.12657 | 27 ft | 14 kts | 357° |
| 2026-05-05 06:39 | -27.38600 | 153.12656 | 27 ft | 0 kts | 357° |
| 2026-05-05 06:40 | -27.38597 | 153.12656 | 27 ft | 2 kts | 357° |
| 2026-05-05 06:41 | -27.38577 | 153.12654 | 27 ft | 4 kts | 355° |
| 2026-05-05 06:41 | -27.38531 | 153.12650 | 27 ft | 11 kts | 356° |
| 2026-05-05 06:41 | -27.38508 | 153.12649 | 27 ft | 6 kts | 357° |
| 2026-05-05 06:41 | -27.38435 | 153.12646 | 27 ft | 12 kts | 356° |
| 2026-05-05 06:42 | -27.38376 | 153.12583 | 27 ft | 14 kts | 274° |
| 2026-05-05 06:42 | -27.38441 | 153.12509 | 27 ft | 15 kts | 206° |
| 2026-05-05 06:42 | -27.38544 | 153.12450 | 27 ft | 18 kts | 207° |
| 2026-05-05 06:42 | -27.38663 | 153.12382 | 27 ft | 20 kts | 207° |
| 2026-05-05 06:43 | -27.38797 | 153.12305 | 27 ft | 23 kts | 207° |
| 2026-05-05 06:43 | -27.38943 | 153.12222 | 27 ft | 23 kts | 207° |
| 2026-05-05 06:43 | -27.39077 | 153.12145 | 27 ft | 22 kts | 207° |
| 2026-05-05 06:43 | -27.39221 | 153.12063 | 27 ft | 25 kts | 206° |
| 2026-05-05 06:44 | -27.39358 | 153.11985 | 27 ft | 21 kts | 207° |
| 2026-05-05 06:44 | -27.39493 | 153.11907 | 27 ft | 23 kts | 207° |
| 2026-05-05 06:44 | -27.39638 | 153.11825 | 27 ft | 21 kts | 206° |
| 2026-05-05 06:44 | -27.39765 | 153.11751 | 27 ft | 19 kts | 207° |
| 2026-05-05 06:45 | -27.39884 | 153.11683 | 27 ft | 20 kts | 207° |
| 2026-05-05 06:45 | -27.40014 | 153.11609 | 27 ft | 22 kts | 207° |
| 2026-05-05 06:45 | -27.40140 | 153.11536 | 27 ft | 16 kts | 207° |
| 2026-05-05 06:45 | -27.40209 | 153.11493 | 27 ft | 10 kts | 223° |
| 2026-05-05 06:46 | -27.40205 | 153.11416 | 27 ft | 11 kts | 296° |
| 2026-05-05 06:46 | -27.40193 | 153.11344 | 27 ft | 9 kts | 243° |
| 2026-05-05 06:46 | -27.40200 | 153.11288 | 27 ft | 8 kts | 295° |
| 2026-05-05 06:46 | -27.40184 | 153.11250 | 27 ft | 6 kts | 296° |
| 2026-05-05 06:47 | -27.40171 | 153.11221 | 27 ft | 2 kts | 297° |
| 2026-05-05 06:47 | -27.40169 | 153.11218 | 27 ft | 0 kts | 297° |